sensor_id;sensor_type;location;lat;lon;timestamp;temperature;humidity
39045;DHT22;52192;52.002;5.956;2024-03-25T00:00:13;7.50;83.30
39045;DHT22;52192;52.002;5.956;2024-03-25T00:02:40;7.50;83.40
39045;DHT22;52192;52.002;5.956;2024-03-25T00:05:07;7.50;83.60
39045;DHT22;52192;52.002;5.956;2024-03-25T00:07:37;7.40;83.40
39045;DHT22;52192;52.002;5.956;2024-03-25T00:10:04;7.50;83.40
39045;DHT22;52192;52.002;5.956;2024-03-25T00:12:32;7.50;83.40
39045;DHT22;52192;52.002;5.956;2024-03-25T00:14:58;7.50;83.40
39045;DHT22;52192;52.002;5.956;2024-03-25T00:17:24;7.50;83.40
39045;DHT22;52192;52.002;5.956;2024-03-25T00:19:49;7.50;83.30
39045;DHT22;52192;52.002;5.956;2024-03-25T00:22:19;7.50;83.00
39045;DHT22;52192;52.002;5.956;2024-03-25T00:24:45;7.50;83.00
39045;DHT22;52192;52.002;5.956;2024-03-25T00:27:12;7.50;83.60
39045;DHT22;52192;52.002;5.956;2024-03-25T00:29:38;7.40;83.00
39045;DHT22;52192;52.002;5.956;2024-03-25T00:32:04;7.40;83.10
39045;DHT22;52192;52.002;5.956;2024-03-25T00:34:31;7.40;83.10
39045;DHT22;52192;52.002;5.956;2024-03-25T00:37:01;7.40;83.10
39045;DHT22;52192;52.002;5.956;2024-03-25T00:39:27;7.40;83.00
39045;DHT22;52192;52.002;5.956;2024-03-25T00:41:53;7.40;83.00
39045;DHT22;52192;52.002;5.956;2024-03-25T00:44:20;7.40;83.00
39045;DHT22;52192;52.002;5.956;2024-03-25T00:46:46;7.40;83.00
39045;DHT22;52192;52.002;5.956;2024-03-25T00:49:12;7.40;83.00
39045;DHT22;52192;52.002;5.956;2024-03-25T00:51:38;7.40;82.90
39045;DHT22;52192;52.002;5.956;2024-03-25T00:54:04;7.40;82.90
39045;DHT22;52192;52.002;5.956;2024-03-25T00:56:31;7.40;82.80
39045;DHT22;52192;52.002;5.956;2024-03-25T00:58:57;7.40;82.70
39045;DHT22;52192;52.002;5.956;2024-03-25T01:01:28;7.40;82.70
39045;DHT22;52192;52.002;5.956;2024-03-25T01:03:54;7.30;82.70
39045;DHT22;52192;52.002;5.956;2024-03-25T01:06:20;7.30;82.80
39045;DHT22;52192;52.002;5.956;2024-03-25T01:08:46;7.30;82.80
39045;DHT22;52192;52.002;5.956;2024-03-25T01:11:12;7.30;82.70
39045;DHT22;52192;52.002;5.956;2024-03-25T01:13:38;7.20;82.60
39045;DHT22;52192;52.002;5.956;2024-03-25T01:16:04;7.20;82.80
39045;DHT22;52192;52.002;5.956;2024-03-25T01:18:30;7.10;82.80
39045;DHT22;52192;52.002;5.956;2024-03-25T01:20:56;7.00;82.80
39045;DHT22;52192;52.002;5.956;2024-03-25T01:23:22;7.00;82.90
39045;DHT22;52192;52.002;5.956;2024-03-25T01:25:48;7.00;82.90
39045;DHT22;52192;52.002;5.956;2024-03-25T01:28:14;6.90;82.60
39045;DHT22;52192;52.002;5.956;2024-03-25T01:30:40;6.90;82.70
39045;DHT22;52192;52.002;5.956;2024-03-25T01:33:06;6.80;82.80
39045;DHT22;52192;52.002;5.956;2024-03-25T01:35:32;6.80;82.90
39045;DHT22;52192;52.002;5.956;2024-03-25T01:37:58;6.70;83.00
39045;DHT22;52192;52.002;5.956;2024-03-25T01:40:24;6.70;83.00
39045;DHT22;52192;52.002;5.956;2024-03-25T01:43:00;6.70;83.00
39045;DHT22;52192;52.002;5.956;2024-03-25T01:45:31;6.70;82.90
39045;DHT22;52192;52.002;5.956;2024-03-25T01:48:01;6.70;83.00
39045;DHT22;52192;52.002;5.956;2024-03-25T01:50:29;6.70;83.10
39045;DHT22;52192;52.002;5.956;2024-03-25T01:52:56;6.70;83.30
39045;DHT22;52192;52.002;5.956;2024-03-25T01:55:27;6.70;83.20
39045;DHT22;52192;52.002;5.956;2024-03-25T01:57:53;6.80;83.30
39045;DHT22;52192;52.002;5.956;2024-03-25T02:00:20;6.80;83.20
39045;DHT22;52192;52.002;5.956;2024-03-25T02:02:47;6.80;83.10
39045;DHT22;52192;52.002;5.956;2024-03-25T02:05:15;6.80;83.20
39045;DHT22;52192;52.002;5.956;2024-03-25T02:07:43;6.80;83.20
39045;DHT22;52192;52.002;5.956;2024-03-25T02:10:09;6.80;83.30
39045;DHT22;52192;52.002;5.956;2024-03-25T02:12:39;6.80;83.10
39045;DHT22;52192;52.002;5.956;2024-03-25T02:15:06;6.80;83.00
39045;DHT22;52192;52.002;5.956;2024-03-25T02:17:32;6.70;82.90
39045;DHT22;52192;52.002;5.956;2024-03-25T02:19:58;6.70;82.90
39045;DHT22;52192;52.002;5.956;2024-03-25T02:22:24;6.70;82.90
39045;DHT22;52192;52.002;5.956;2024-03-25T02:24:52;6.60;83.10
39045;DHT22;52192;52.002;5.956;2024-03-25T02:27:18;6.60;83.10
39045;DHT22;52192;52.002;5.956;2024-03-25T02:29:45;6.60;83.20
39045;DHT22;52192;52.002;5.956;2024-03-25T02:32:11;6.50;83.20
39045;DHT22;52192;52.002;5.956;2024-03-25T02:34:41;6.50;83.30
39045;DHT22;52192;52.002;5.956;2024-03-25T02:37:07;6.60;83.30
39045;DHT22;52192;52.002;5.956;2024-03-25T02:39:34;6.60;83.30
39045;DHT22;52192;52.002;5.956;2024-03-25T02:42:00;6.60;83.80
39045;DHT22;52192;52.002;5.956;2024-03-25T02:44:25;6.60;83.30
39045;DHT22;52192;52.002;5.956;2024-03-25T02:46:52;6.60;83.20
39045;DHT22;52192;52.002;5.956;2024-03-25T02:49:18;6.60;83.30
39045;DHT22;52192;52.002;5.956;2024-03-25T02:51:44;6.60;83.30
39045;DHT22;52192;52.002;5.956;2024-03-25T02:54:10;6.70;83.40
39045;DHT22;52192;52.002;5.956;2024-03-25T02:56:36;6.70;83.30
39045;DHT22;52192;52.002;5.956;2024-03-25T02:59:02;6.80;83.40
39045;DHT22;52192;52.002;5.956;2024-03-25T03:01:28;6.80;83.40
39045;DHT22;52192;52.002;5.956;2024-03-25T03:03:54;6.80;83.30
39045;DHT22;52192;52.002;5.956;2024-03-25T03:06:20;6.90;83.40
39045;DHT22;52192;52.002;5.956;2024-03-25T03:08:46;7.00;83.40
39045;DHT22;52192;52.002;5.956;2024-03-25T03:11:11;7.00;83.30
39045;DHT22;52192;52.002;5.956;2024-03-25T03:13:37;7.10;83.20
39045;DHT22;52192;52.002;5.956;2024-03-25T03:16:03;7.10;83.20
39045;DHT22;52192;52.002;5.956;2024-03-25T03:18:30;7.00;83.30
39045;DHT22;52192;52.002;5.956;2024-03-25T03:20:56;7.00;83.30
39045;DHT22;52192;52.002;5.956;2024-03-25T03:23:22;7.00;83.30
39045;DHT22;52192;52.002;5.956;2024-03-25T03:25:49;7.10;83.40
39045;DHT22;52192;52.002;5.956;2024-03-25T03:28:15;7.10;83.40
39045;DHT22;52192;52.002;5.956;2024-03-25T03:30:42;7.00;83.40
39045;DHT22;52192;52.002;5.956;2024-03-25T03:33:08;7.00;83.40
39045;DHT22;52192;52.002;5.956;2024-03-25T03:35:34;7.00;83.50
39045;DHT22;52192;52.002;5.956;2024-03-25T03:38:00;7.00;83.50
39045;DHT22;52192;52.002;5.956;2024-03-25T03:40:26;7.00;83.40
39045;DHT22;52192;52.002;5.956;2024-03-25T03:42:52;7.00;83.40
39045;DHT22;52192;52.002;5.956;2024-03-25T03:45:18;7.00;83.40
39045;DHT22;52192;52.002;5.956;2024-03-25T03:47:44;7.00;83.30
39045;DHT22;52192;52.002;5.956;2024-03-25T03:50:10;7.00;83.30
39045;DHT22;52192;52.002;5.956;2024-03-25T03:52:36;7.00;83.30
39045;DHT22;52192;52.002;5.956;2024-03-25T03:55:02;7.00;83.40
39045;DHT22;52192;52.002;5.956;2024-03-25T03:57:31;6.90;83.20
39045;DHT22;52192;52.002;5.956;2024-03-25T03:59:58;6.90;83.30
39045;DHT22;52192;52.002;5.956;2024-03-25T04:02:25;6.90;83.40
39045;DHT22;52192;52.002;5.956;2024-03-25T04:04:51;6.80;83.40
39045;DHT22;52192;52.002;5.956;2024-03-25T04:07:17;6.80;83.40
39045;DHT22;52192;52.002;5.956;2024-03-25T04:09:43;6.70;83.30
39045;DHT22;52192;52.002;5.956;2024-03-25T04:12:09;6.70;83.30
39045;DHT22;52192;52.002;5.956;2024-03-25T04:14:35;6.70;83.30
39045;DHT22;52192;52.002;5.956;2024-03-25T04:17:01;6.60;83.30
39045;DHT22;52192;52.002;5.956;2024-03-25T04:19:28;6.50;83.30
39045;DHT22;52192;52.002;5.956;2024-03-25T04:21:54;6.50;83.40
39045;DHT22;52192;52.002;5.956;2024-03-25T04:24:20;6.40;83.40
39045;DHT22;52192;52.002;5.956;2024-03-25T04:26:46;6.40;83.40
39045;DHT22;52192;52.002;5.956;2024-03-25T04:29:13;6.30;83.40
39045;DHT22;52192;52.002;5.956;2024-03-25T04:31:38;6.30;83.50
39045;DHT22;52192;52.002;5.956;2024-03-25T04:34:04;6.30;83.50
39045;DHT22;52192;52.002;5.956;2024-03-25T04:36:30;6.30;83.40
39045;DHT22;52192;52.002;5.956;2024-03-25T04:38:56;6.30;83.40
39045;DHT22;52192;52.002;5.956;2024-03-25T04:41:23;6.20;83.30
39045;DHT22;52192;52.002;5.956;2024-03-25T04:43:49;6.20;83.20
39045;DHT22;52192;52.002;5.956;2024-03-25T04:46:14;6.10;83.20
39045;DHT22;52192;52.002;5.956;2024-03-25T04:48:40;6.10;83.20
39045;DHT22;52192;52.002;5.956;2024-03-25T04:51:06;6.00;83.20
39045;DHT22;52192;52.002;5.956;2024-03-25T04:53:34;6.00;83.10
39045;DHT22;52192;52.002;5.956;2024-03-25T04:56:00;6.00;83.10
39045;DHT22;52192;52.002;5.956;2024-03-25T04:58:26;6.00;83.10
39045;DHT22;52192;52.002;5.956;2024-03-25T05:00:52;5.90;83.00
39045;DHT22;52192;52.002;5.956;2024-03-25T05:03:18;5.90;83.00
39045;DHT22;52192;52.002;5.956;2024-03-25T05:05:44;5.80;83.00
39045;DHT22;52192;52.002;5.956;2024-03-25T05:08:10;5.80;83.00
39045;DHT22;52192;52.002;5.956;2024-03-25T05:10:35;5.80;82.90
39045;DHT22;52192;52.002;5.956;2024-03-25T05:13:01;5.70;82.90
39045;DHT22;52192;52.002;5.956;2024-03-25T05:15:27;5.70;82.90
39045;DHT22;52192;52.002;5.956;2024-03-25T05:17:53;5.70;83.00
39045;DHT22;52192;52.002;5.956;2024-03-25T05:20:19;5.70;83.10
39045;DHT22;52192;52.002;5.956;2024-03-25T05:22:44;5.70;82.90
39045;DHT22;52192;52.002;5.956;2024-03-25T05:25:10;5.70;82.90
39045;DHT22;52192;52.002;5.956;2024-03-25T05:27:37;5.60;82.90
39045;DHT22;52192;52.002;5.956;2024-03-25T05:30:03;5.60;82.90
39045;DHT22;52192;52.002;5.956;2024-03-25T05:32:29;5.60;82.90
39045;DHT22;52192;52.002;5.956;2024-03-25T05:34:55;5.60;82.90
39045;DHT22;52192;52.002;5.956;2024-03-25T05:37:21;5.60;82.90
39045;DHT22;52192;52.002;5.956;2024-03-25T05:39:46;5.50;82.80
39045;DHT22;52192;52.002;5.956;2024-03-25T05:42:12;5.50;82.80
39045;DHT22;52192;52.002;5.956;2024-03-25T05:44:38;5.50;82.80
39045;DHT22;52192;52.002;5.956;2024-03-25T05:47:04;5.60;82.90
39045;DHT22;52192;52.002;5.956;2024-03-25T05:49:30;5.60;82.80
39045;DHT22;52192;52.002;5.956;2024-03-25T05:51:56;5.60;82.90
39045;DHT22;52192;52.002;5.956;2024-03-25T05:54:21;5.50;82.90
39045;DHT22;52192;52.002;5.956;2024-03-25T05:56:47;5.60;82.90
39045;DHT22;52192;52.002;5.956;2024-03-25T05:59:13;5.60;82.90
39045;DHT22;52192;52.002;5.956;2024-03-25T06:01:39;5.60;82.90
39045;DHT22;52192;52.002;5.956;2024-03-25T06:04:05;5.60;82.90
39045;DHT22;52192;52.002;5.956;2024-03-25T06:06:31;5.60;82.80
39045;DHT22;52192;52.002;5.956;2024-03-25T06:08:57;5.70;82.70
39045;DHT22;52192;52.002;5.956;2024-03-25T06:11:23;5.70;82.70
39045;DHT22;52192;52.002;5.956;2024-03-25T06:13:49;5.70;82.90
39045;DHT22;52192;52.002;5.956;2024-03-25T06:16:14;5.80;82.80
39045;DHT22;52192;52.002;5.956;2024-03-25T06:18:40;5.90;82.80
39045;DHT22;52192;52.002;5.956;2024-03-25T06:21:06;5.90;82.70
39045;DHT22;52192;52.002;5.956;2024-03-25T06:23:32;6.00;82.70
39045;DHT22;52192;52.002;5.956;2024-03-25T06:25:58;6.00;82.80
39045;DHT22;52192;52.002;5.956;2024-03-25T06:28:23;6.10;82.80
39045;DHT22;52192;52.002;5.956;2024-03-25T06:30:50;6.20;82.80
39045;DHT22;52192;52.002;5.956;2024-03-25T06:33:34;6.30;82.80
39045;DHT22;52192;52.002;5.956;2024-03-25T06:36:20;6.30;82.70
39045;DHT22;52192;52.002;5.956;2024-03-25T06:38:45;6.40;82.80
39045;DHT22;52192;52.002;5.956;2024-03-25T06:41:11;6.40;82.80
39045;DHT22;52192;52.002;5.956;2024-03-25T06:43:37;6.50;82.80
39045;DHT22;52192;52.002;5.956;2024-03-25T06:46:06;6.50;82.80
39045;DHT22;52192;52.002;5.956;2024-03-25T06:48:35;6.60;82.80
39045;DHT22;52192;52.002;5.956;2024-03-25T06:51:02;6.60;82.80
39045;DHT22;52192;52.002;5.956;2024-03-25T06:53:30;6.70;82.90
39045;DHT22;52192;52.002;5.956;2024-03-25T06:55:57;6.70;82.90
39045;DHT22;52192;52.002;5.956;2024-03-25T06:58:25;6.70;82.80
39045;DHT22;52192;52.002;5.956;2024-03-25T07:00:51;6.80;82.90
39045;DHT22;52192;52.002;5.956;2024-03-25T07:03:18;6.90;82.90
39045;DHT22;52192;52.002;5.956;2024-03-25T07:05:48;7.00;82.80
39045;DHT22;52192;52.002;5.956;2024-03-25T07:08:14;7.10;82.80
39045;DHT22;52192;52.002;5.956;2024-03-25T07:10:44;7.10;82.60
39045;DHT22;52192;52.002;5.956;2024-03-25T07:13:10;7.20;82.60
39045;DHT22;52192;52.002;5.956;2024-03-25T07:15:36;7.20;82.50
39045;DHT22;52192;52.002;5.956;2024-03-25T07:18:02;7.30;82.50
39045;DHT22;52192;52.002;5.956;2024-03-25T07:20:29;7.40;82.50
39045;DHT22;52192;52.002;5.956;2024-03-25T07:22:55;7.40;82.50
39045;DHT22;52192;52.002;5.956;2024-03-25T07:25:24;7.40;82.50
39045;DHT22;52192;52.002;5.956;2024-03-25T07:27:51;7.50;82.60
39045;DHT22;52192;52.002;5.956;2024-03-25T07:30:17;7.60;82.60
39045;DHT22;52192;52.002;5.956;2024-03-25T07:32:42;7.60;82.40
39045;DHT22;52192;52.002;5.956;2024-03-25T07:35:10;7.70;82.30
39045;DHT22;52192;52.002;5.956;2024-03-25T07:37:36;7.80;82.40
39045;DHT22;52192;52.002;5.956;2024-03-25T07:40:02;7.80;82.20
39045;DHT22;52192;52.002;5.956;2024-03-25T07:42:29;7.90;82.20
39045;DHT22;52192;52.002;5.956;2024-03-25T07:44:55;8.00;82.10
39045;DHT22;52192;52.002;5.956;2024-03-25T07:47:21;8.10;82.10
39045;DHT22;52192;52.002;5.956;2024-03-25T07:49:47;8.10;82.10
39045;DHT22;52192;52.002;5.956;2024-03-25T07:52:12;8.20;82.10
39045;DHT22;52192;52.002;5.956;2024-03-25T07:54:39;8.20;82.00
39045;DHT22;52192;52.002;5.956;2024-03-25T07:57:05;8.30;81.90
39045;DHT22;52192;52.002;5.956;2024-03-25T07:59:30;8.30;81.80
39045;DHT22;52192;52.002;5.956;2024-03-25T08:01:56;8.40;81.90
39045;DHT22;52192;52.002;5.956;2024-03-25T08:04:22;8.50;81.80
39045;DHT22;52192;52.002;5.956;2024-03-25T08:06:48;8.50;82.20
39045;DHT22;52192;52.002;5.956;2024-03-25T08:09:14;8.60;81.60
39045;DHT22;52192;52.002;5.956;2024-03-25T08:11:41;8.70;81.50
39045;DHT22;52192;52.002;5.956;2024-03-25T08:14:09;8.80;81.30
39045;DHT22;52192;52.002;5.956;2024-03-25T08:16:35;8.90;81.10
39045;DHT22;52192;52.002;5.956;2024-03-25T08:19:00;9.00;81.00
39045;DHT22;52192;52.002;5.956;2024-03-25T08:21:26;9.00;80.90
39045;DHT22;52192;52.002;5.956;2024-03-25T08:23:52;9.10;80.80
39045;DHT22;52192;52.002;5.956;2024-03-25T08:26:18;9.20;80.60
39045;DHT22;52192;52.002;5.956;2024-03-25T08:28:43;9.20;80.60
39045;DHT22;52192;52.002;5.956;2024-03-25T08:31:09;9.30;80.60
39045;DHT22;52192;52.002;5.956;2024-03-25T08:33:35;9.40;80.50
39045;DHT22;52192;52.002;5.956;2024-03-25T08:36:00;9.50;80.40
39045;DHT22;52192;52.002;5.956;2024-03-25T08:38:26;9.50;80.00
39045;DHT22;52192;52.002;5.956;2024-03-25T08:40:52;9.60;80.00
39045;DHT22;52192;52.002;5.956;2024-03-25T08:43:18;9.70;79.90
39045;DHT22;52192;52.002;5.956;2024-03-25T08:45:44;9.80;80.30
39045;DHT22;52192;52.002;5.956;2024-03-25T08:48:11;9.90;79.40
39045;DHT22;52192;52.002;5.956;2024-03-25T08:50:37;10.00;78.90
39045;DHT22;52192;52.002;5.956;2024-03-25T08:53:04;10.00;78.80
39045;DHT22;52192;52.002;5.956;2024-03-25T08:55:30;10.10;78.70
39045;DHT22;52192;52.002;5.956;2024-03-25T08:57:56;10.10;78.40
39045;DHT22;52192;52.002;5.956;2024-03-25T09:00:24;10.20;78.40
39045;DHT22;52192;52.002;5.956;2024-03-25T09:02:50;10.30;78.20
39045;DHT22;52192;52.002;5.956;2024-03-25T09:05:16;10.40;77.30
39045;DHT22;52192;52.002;5.956;2024-03-25T09:07:44;10.40;77.00
39045;DHT22;52192;52.002;5.956;2024-03-25T09:10:10;10.50;76.90
39045;DHT22;52192;52.002;5.956;2024-03-25T09:12:54;10.60;76.70
39045;DHT22;52192;52.002;5.956;2024-03-25T09:15:20;10.70;76.80
39045;DHT22;52192;52.002;5.956;2024-03-25T09:17:46;10.80;76.60
39045;DHT22;52192;52.002;5.956;2024-03-25T09:20:12;10.90;76.70
39045;DHT22;52192;52.002;5.956;2024-03-25T09:22:43;10.90;76.20
39045;DHT22;52192;52.002;5.956;2024-03-25T09:25:09;10.90;75.20
39045;DHT22;52192;52.002;5.956;2024-03-25T09:27:36;10.90;75.10
39045;DHT22;52192;52.002;5.956;2024-03-25T09:30:02;10.90;75.20
39045;DHT22;52192;52.002;5.956;2024-03-25T09:32:29;10.90;75.00
39045;DHT22;52192;52.002;5.956;2024-03-25T09:34:56;10.90;74.90
39045;DHT22;52192;52.002;5.956;2024-03-25T09:37:22;11.10;74.60
39045;DHT22;52192;52.002;5.956;2024-03-25T09:39:48;11.30;74.40
39045;DHT22;52192;52.002;5.956;2024-03-25T09:42:26;11.50;73.90
39045;DHT22;52192;52.002;5.956;2024-03-25T09:44:54;11.60;73.30
39045;DHT22;52192;52.002;5.956;2024-03-25T09:47:23;11.60;73.30
39045;DHT22;52192;52.002;5.956;2024-03-25T09:49:49;11.80;72.90
39045;DHT22;52192;52.002;5.956;2024-03-25T09:52:15;11.90;73.10
39045;DHT22;52192;52.002;5.956;2024-03-25T09:54:41;12.20;72.60
39045;DHT22;52192;52.002;5.956;2024-03-25T09:57:08;12.20;70.10
39045;DHT22;52192;52.002;5.956;2024-03-25T09:59:34;12.30;70.00
39045;DHT22;52192;52.002;5.956;2024-03-25T10:02:01;12.40;69.60
39045;DHT22;52192;52.002;5.956;2024-03-25T10:04:27;12.40;70.10
39045;DHT22;52192;52.002;5.956;2024-03-25T10:06:53;12.30;68.80
39045;DHT22;52192;52.002;5.956;2024-03-25T10:09:22;12.20;69.10
39045;DHT22;52192;52.002;5.956;2024-03-25T10:11:48;12.10;68.80
39045;DHT22;52192;52.002;5.956;2024-03-25T10:14:18;12.10;68.70
39045;DHT22;52192;52.002;5.956;2024-03-25T10:16:48;12.10;68.90
39045;DHT22;52192;52.002;5.956;2024-03-25T10:19:14;12.20;68.10
39045;DHT22;52192;52.002;5.956;2024-03-25T10:21:40;12.10;66.90
39045;DHT22;52192;52.002;5.956;2024-03-25T10:24:06;12.10;67.60
39045;DHT22;52192;52.002;5.956;2024-03-25T10:26:32;12.10;67.80
39045;DHT22;52192;52.002;5.956;2024-03-25T10:29:02;12.20;67.70
39045;DHT22;52192;52.002;5.956;2024-03-25T10:31:28;12.10;67.20
39045;DHT22;52192;52.002;5.956;2024-03-25T10:33:54;12.20;67.00
39045;DHT22;52192;52.002;5.956;2024-03-25T10:36:21;12.20;67.30
39045;DHT22;52192;52.002;5.956;2024-03-25T10:38:49;12.30;67.40
39045;DHT22;52192;52.002;5.956;2024-03-25T10:41:17;12.30;67.40
39045;DHT22;52192;52.002;5.956;2024-03-25T10:43:47;12.40;67.00
39045;DHT22;52192;52.002;5.956;2024-03-25T10:46:22;12.50;66.50
39045;DHT22;52192;52.002;5.956;2024-03-25T10:49:13;12.50;66.30
39045;DHT22;52192;52.002;5.956;2024-03-25T10:51:41;12.50;66.30
39045;DHT22;52192;52.002;5.956;2024-03-25T10:54:07;12.50;66.50
39045;DHT22;52192;52.002;5.956;2024-03-25T10:56:33;12.70;66.40
39045;DHT22;52192;52.002;5.956;2024-03-25T10:59:00;13.00;66.40
39045;DHT22;52192;52.002;5.956;2024-03-25T11:01:28;13.20;65.90
39045;DHT22;52192;52.002;5.956;2024-03-25T11:03:54;13.30;65.10
39045;DHT22;52192;52.002;5.956;2024-03-25T11:06:20;13.20;65.00
39045;DHT22;52192;52.002;5.956;2024-03-25T11:08:56;13.20;64.80
39045;DHT22;52192;52.002;5.956;2024-03-25T11:11:23;13.20;64.80
39045;DHT22;52192;52.002;5.956;2024-03-25T11:13:48;13.30;64.10
39045;DHT22;52192;52.002;5.956;2024-03-25T11:16:26;13.50;64.30
39045;DHT22;52192;52.002;5.956;2024-03-25T11:18:54;13.70;64.30
39045;DHT22;52192;52.002;5.956;2024-03-25T11:21:25;13.90;64.10
39045;DHT22;52192;52.002;5.956;2024-03-25T11:23:51;14.10;64.10
39045;DHT22;52192;52.002;5.956;2024-03-25T11:26:21;14.30;62.10
39045;DHT22;52192;52.002;5.956;2024-03-25T11:28:51;14.10;61.30
39045;DHT22;52192;52.002;5.956;2024-03-25T11:31:20;14.00;62.00
39045;DHT22;52192;52.002;5.956;2024-03-25T11:33:46;13.90;62.40
39045;DHT22;52192;52.002;5.956;2024-03-25T11:36:12;13.90;62.90
39045;DHT22;52192;52.002;5.956;2024-03-25T11:38:38;14.00;62.50
39045;DHT22;52192;52.002;5.956;2024-03-25T11:41:07;14.00;62.40
39045;DHT22;52192;52.002;5.956;2024-03-25T11:43:33;14.00;62.50
39045;DHT22;52192;52.002;5.956;2024-03-25T11:45:59;13.80;62.10
39045;DHT22;52192;52.002;5.956;2024-03-25T11:48:26;13.70;62.70
39045;DHT22;52192;52.002;5.956;2024-03-25T11:50:51;13.60;62.80
39045;DHT22;52192;52.002;5.956;2024-03-25T11:53:17;13.60;63.10
39045;DHT22;52192;52.002;5.956;2024-03-25T11:55:47;13.60;63.20
39045;DHT22;52192;52.002;5.956;2024-03-25T11:58:14;13.70;63.40
39045;DHT22;52192;52.002;5.956;2024-03-25T12:00:46;13.90;63.40
39045;DHT22;52192;52.002;5.956;2024-03-25T12:03:15;14.30;62.50
39045;DHT22;52192;52.002;5.956;2024-03-25T12:05:44;14.50;62.30
39045;DHT22;52192;52.002;5.956;2024-03-25T12:08:11;14.90;60.90
39045;DHT22;52192;52.002;5.956;2024-03-25T12:10:38;15.10;61.10
39045;DHT22;52192;52.002;5.956;2024-03-25T12:13:23;15.40;60.40
39045;DHT22;52192;52.002;5.956;2024-03-25T12:15:53;15.80;59.50
39045;DHT22;52192;52.002;5.956;2024-03-25T12:18:20;16.00;59.10
39045;DHT22;52192;52.002;5.956;2024-03-25T12:20:45;16.30;58.80
39045;DHT22;52192;52.002;5.956;2024-03-25T12:23:11;16.40;57.20
39045;DHT22;52192;52.002;5.956;2024-03-25T12:25:37;16.40;56.30
39045;DHT22;52192;52.002;5.956;2024-03-25T12:28:08;16.30;56.50
39045;DHT22;52192;52.002;5.956;2024-03-25T12:30:52;16.40;56.70
39045;DHT22;52192;52.002;5.956;2024-03-25T12:33:18;16.60;56.00
39045;DHT22;52192;52.002;5.956;2024-03-25T12:35:48;16.70;55.30
39045;DHT22;52192;52.002;5.956;2024-03-25T12:38:24;16.80;54.80
39045;DHT22;52192;52.002;5.956;2024-03-25T12:40:50;16.80;55.20
39045;DHT22;52192;52.002;5.956;2024-03-25T12:43:17;17.10;55.30
39045;DHT22;52192;52.002;5.956;2024-03-25T12:45:42;17.20;54.30
39045;DHT22;52192;52.002;5.956;2024-03-25T12:48:09;17.10;53.40
39045;DHT22;52192;52.002;5.956;2024-03-25T12:50:35;17.00;53.80
39045;DHT22;52192;52.002;5.956;2024-03-25T12:53:01;16.80;53.80
39045;DHT22;52192;52.002;5.956;2024-03-25T12:55:31;16.80;54.30
39045;DHT22;52192;52.002;5.956;2024-03-25T12:57:56;16.70;54.20
39045;DHT22;52192;52.002;5.956;2024-03-25T13:00:22;16.90;54.40
39045;DHT22;52192;52.002;5.956;2024-03-25T13:02:48;17.10;54.20
39045;DHT22;52192;52.002;5.956;2024-03-25T13:05:14;17.40;53.90
39045;DHT22;52192;52.002;5.956;2024-03-25T13:07:40;17.60;53.40
39045;DHT22;52192;52.002;5.956;2024-03-25T13:10:06;17.80;52.50
39045;DHT22;52192;52.002;5.956;2024-03-25T13:12:31;17.80;51.50
39045;DHT22;52192;52.002;5.956;2024-03-25T13:14:57;17.80;50.20
39045;DHT22;52192;52.002;5.956;2024-03-25T13:17:24;17.70;50.90
39045;DHT22;52192;52.002;5.956;2024-03-25T13:19:50;17.90;51.20
39045;DHT22;52192;52.002;5.956;2024-03-25T13:22:16;18.10;51.00
39045;DHT22;52192;52.002;5.956;2024-03-25T13:24:41;18.30;50.50
39045;DHT22;52192;52.002;5.956;2024-03-25T13:27:07;18.50;50.40
39045;DHT22;52192;52.002;5.956;2024-03-25T13:29:33;18.70;49.90
39045;DHT22;52192;52.002;5.956;2024-03-25T13:32:01;18.80;48.30
39045;DHT22;52192;52.002;5.956;2024-03-25T13:34:27;18.60;48.80
39045;DHT22;52192;52.002;5.956;2024-03-25T13:36:53;18.50;49.40
39045;DHT22;52192;52.002;5.956;2024-03-25T13:39:18;18.70;49.00
39045;DHT22;52192;52.002;5.956;2024-03-25T13:41:44;18.80;49.00
39045;DHT22;52192;52.002;5.956;2024-03-25T13:44:11;18.80;48.50
39045;DHT22;52192;52.002;5.956;2024-03-25T13:46:36;18.80;47.70
39045;DHT22;52192;52.002;5.956;2024-03-25T13:49:02;18.70;47.20
39045;DHT22;52192;52.002;5.956;2024-03-25T13:51:28;18.60;47.10
39045;DHT22;52192;52.002;5.956;2024-03-25T13:53:54;18.70;46.90
39045;DHT22;52192;52.002;5.956;2024-03-25T13:56:19;18.80;47.30
39045;DHT22;52192;52.002;5.956;2024-03-25T13:58:45;19.10;46.30
39045;DHT22;52192;52.002;5.956;2024-03-25T14:01:11;19.20;45.30
39045;DHT22;52192;52.002;5.956;2024-03-25T14:03:36;19.10;45.10
39045;DHT22;52192;52.002;5.956;2024-03-25T14:06:02;19.10;44.20
39045;DHT22;52192;52.002;5.956;2024-03-25T14:08:28;19.00;44.20
39045;DHT22;52192;52.002;5.956;2024-03-25T14:11:01;18.90;44.20
39045;DHT22;52192;52.002;5.956;2024-03-25T14:13:27;18.90;43.50
39045;DHT22;52192;52.002;5.956;2024-03-25T14:15:53;18.70;44.20
39045;DHT22;52192;52.002;5.956;2024-03-25T14:18:19;18.40;44.60
39045;DHT22;52192;52.002;5.956;2024-03-25T14:20:45;18.00;45.70
39045;DHT22;52192;52.002;5.956;2024-03-25T14:23:10;18.10;46.00
39045;DHT22;52192;52.002;5.956;2024-03-25T14:25:37;18.20;46.20
39045;DHT22;52192;52.002;5.956;2024-03-25T14:28:03;18.50;45.50
39045;DHT22;52192;52.002;5.956;2024-03-25T14:30:28;18.80;45.70
39045;DHT22;52192;52.002;5.956;2024-03-25T14:32:54;19.10;45.40
39045;DHT22;52192;52.002;5.956;2024-03-25T14:35:21;19.40;46.00
39045;DHT22;52192;52.002;5.956;2024-03-25T14:37:47;19.90;44.80
39045;DHT22;52192;52.002;5.956;2024-03-25T14:40:12;20.20;44.40
39045;DHT22;52192;52.002;5.956;2024-03-25T14:42:38;20.30;44.30
39045;DHT22;52192;52.002;5.956;2024-03-25T14:45:04;20.60;43.50
39045;DHT22;52192;52.002;5.956;2024-03-25T14:47:31;21.70;42.30
39045;DHT22;52192;52.002;5.956;2024-03-25T14:49:56;23.20;40.70
39045;DHT22;52192;52.002;5.956;2024-03-25T14:52:23;24.70;38.90
39045;DHT22;52192;52.002;5.956;2024-03-25T14:54:48;26.00;36.70
39045;DHT22;52192;52.002;5.956;2024-03-25T14:57:14;26.90;35.70
39045;DHT22;52192;52.002;5.956;2024-03-25T14:59:40;27.80;35.50
39045;DHT22;52192;52.002;5.956;2024-03-25T15:02:05;28.80;34.00
39045;DHT22;52192;52.002;5.956;2024-03-25T15:04:31;29.50;33.40
39045;DHT22;52192;52.002;5.956;2024-03-25T15:06:58;30.10;33.00
39045;DHT22;52192;52.002;5.956;2024-03-25T15:09:24;30.50;32.60
39045;DHT22;52192;52.002;5.956;2024-03-25T15:11:50;30.70;31.60
39045;DHT22;52192;52.002;5.956;2024-03-25T15:14:15;30.70;31.80
39045;DHT22;52192;52.002;5.956;2024-03-25T15:16:41;31.10;31.70
39045;DHT22;52192;52.002;5.956;2024-03-25T15:19:07;31.40;31.20
39045;DHT22;52192;52.002;5.956;2024-03-25T15:21:35;31.60;31.10
39045;DHT22;52192;52.002;5.956;2024-03-25T15:24:04;31.80;31.10
39045;DHT22;52192;52.002;5.956;2024-03-25T15:26:30;31.90;30.80
39045;DHT22;52192;52.002;5.956;2024-03-25T15:28:56;32.10;30.40
39045;DHT22;52192;52.002;5.956;2024-03-25T15:31:21;32.20;30.00
39045;DHT22;52192;52.002;5.956;2024-03-25T15:33:47;32.00;29.80
39045;DHT22;52192;52.002;5.956;2024-03-25T15:36:13;31.80;29.80